Time;durP1;ratioP1;P1;durP2;ratioP2;P2;SDS_P1;SDS_P2;PMS_P1;PMS_P2;Temp;Humidity;BMP_temperature;BMP_pressure;BME280_temperature;BME280_humidity;BME280_pressure;Samples;Min_cycle;Max_cycle;Signal;HPM_P1;HPM_P2
2023/12/24 00:02:02;;;;;;;7.00;1.67;;;;;;;9.48;100.00;100745.91;5176730;27;20501;-78
2023/12/24 00:04:29;;;;;;;4.75;1.25;;;;;;;9.47;100.00;100747.81;5175858;27;20043;-77
2023/12/24 00:06:55;;;;;;;7.05;1.42;;;;;;;9.49;100.00;100739.41;5176798;27;20082;-78
2023/12/24 00:09:22;;;;;;;7.35;2.00;;;;;;;9.47;100.00;100726.56;5175540;27;20125;-77
2023/12/24 00:11:48;;;;;;;5.55;1.40;;;;;;;9.46;100.00;100709.13;5176999;27;20091;-77
2023/12/24 00:14:15;;;;;;;5.70;1.88;;;;;;;9.47;100.00;100715.19;5175994;27;20078;-77
2023/12/24 00:16:41;;;;;;;4.45;1.40;;;;;;;9.47;100.00;100707.94;5174605;27;20121;-77
2023/12/24 00:19:08;;;;;;;6.68;1.35;;;;;;;9.48;100.00;100711.34;5156626;27;20050;-77
2023/12/24 00:21:35;;;;;;;7.47;2.08;;;;;;;9.47;100.00;100699.97;5176528;27;20088;-77
2023/12/24 00:24:01;;;;;;;8.30;1.40;;;;;;;9.46;100.00;100684.47;5175920;27;20045;-77
2023/12/24 00:26:28;;;;;;;6.40;1.10;;;;;;;9.47;100.00;100677.97;5156924;27;20825;-77
2023/12/24 00:28:54;;;;;;;4.97;1.35;;;;;;;9.48;100.00;100685.53;5171767;27;20091;-77
2023/12/24 00:31:21;;;;;;;9.65;1.45;;;;;;;9.47;100.00;100678.72;5175658;27;20576;-78
2023/12/24 00:33:49;;;;;;;6.05;1.52;;;;;;;9.46;100.00;100679.91;5156586;27;20533;-77
2023/12/24 00:36:16;;;;;;;8.10;1.75;;;;;;;9.47;100.00;100670.00;5156657;27;20046;-77
2023/12/24 00:38:42;;;;;;;7.40;1.30;;;;;;;9.47;100.00;100670.00;5175611;27;20043;-77
2023/12/24 00:41:09;;;;;;;4.10;1.10;;;;;;;9.47;100.00;100665.44;5156290;27;20047;-77
2023/12/24 00:43:37;;;;;;;5.75;1.73;;;;;;;9.46;100.00;100663.94;5156136;27;20043;-77
2023/12/24 00:46:03;;;;;;;3.92;1.17;;;;;;;9.47;100.00;100654.06;5156353;27;20517;-77
2023/12/24 00:48:30;;;;;;;6.60;1.23;;;;;;;9.46;100.00;100652.59;5175841;27;20099;-77
2023/12/24 00:50:56;;;;;;;6.97;1.42;;;;;;;9.45;100.00;100643.13;5157084;27;20064;-77
2023/12/24 00:53:23;;;;;;;7.00;1.30;;;;;;;9.44;100.00;100649.63;5155890;27;20047;-77
2023/12/24 00:55:50;;;;;;;3.65;1.45;;;;;;;9.43;100.00;100648.13;5157201;27;20074;-77
2023/12/24 00:58:17;;;;;;;8.45;1.33;;;;;;;9.43;100.00;100640.16;5156065;27;20111;-77
2023/12/24 01:00:46;;;;;;;7.78;1.80;;;;;;;9.42;100.00;100649.31;5156847;27;20047;-77
2023/12/24 01:03:13;;;;;;;6.95;1.45;;;;;;;9.40;100.00;100646.34;5155870;27;20095;-77
2023/12/24 01:05:40;;;;;;;5.72;1.40;;;;;;;9.38;100.00;100643.38;5139700;27;20605;-77
2023/12/24 01:08:07;;;;;;;5.63;1.73;;;;;;;9.35;100.00;100642.31;5153348;27;20460;-77
2023/12/24 01:10:34;;;;;;;3.97;1.42;;;;;;;9.32;100.00;100649.25;5155936;27;20087;-77
2023/12/24 01:13:00;;;;;;;9.93;1.75;;;;;;;9.29;100.00;100649.34;5174407;27;20042;-77
2023/12/24 01:15:27;;;;;;;8.48;1.45;;;;;;;9.22;100.00;100639.72;5155802;27;20054;-77
2023/12/24 01:17:54;;;;;;;6.50;1.30;;;;;;;9.18;100.00;100647.09;5156441;27;20054;-77
2023/12/24 01:20:21;;;;;;;6.07;1.42;;;;;;;9.15;100.00;100647.22;5155643;27;20050;-77
2023/12/24 01:22:49;;;;;;;3.50;1.27;;;;;;;9.08;100.00;100644.78;5175015;27;20083;-77
2023/12/24 01:25:16;;;;;;;4.20;1.20;;;;;;;9.04;100.00;100647.56;5155802;27;20043;-77
2023/12/24 01:27:43;;;;;;;5.70;1.38;;;;;;;9.01;100.00;100649.16;5156106;27;20046;-77
2023/12/24 01:30:10;;;;;;;3.97;1.30;;;;;;;8.97;100.00;100643.22;5156220;27;20104;-77
2023/12/24 01:32:37;;;;;;;8.90;1.70;;;;;;;8.94;100.00;100638.78;5155862;27;20085;-77
2023/12/24 01:35:04;;;;;;;6.97;1.88;;;;;;;8.91;100.00;100638.88;5152555;27;20046;-77
2023/12/24 01:37:31;;;;;;;4.72;1.38;;;;;;;8.89;100.00;100639.31;5155581;27;20043;-77
2023/12/24 01:39:58;;;;;;;3.88;1.58;;;;;;;8.86;100.00;100640.16;5174124;27;20502;-77
2023/12/24 01:42:25;;;;;;;7.40;1.40;;;;;;;8.84;100.00;100637.19;5175330;27;20042;-77
2023/12/24 01:44:51;;;;;;;8.98;1.63;;;;;;;8.83;100.00;100619.06;5176319;27;20043;-77
2023/12/24 01:47:18;;;;;;;2.72;1.50;;;;;;;8.83;100.00;100616.41;5158754;27;20046;-76
2023/12/24 01:49:45;;;;;;;6.72;1.40;;;;;;;8.81;100.00;100619.47;5158783;27;20505;-76
2023/12/24 01:52:12;;;;;;;6.20;1.35;;;;;;;8.80;100.00;100614.59;5178330;27;20557;-76
2023/12/24 01:54:39;;;;;;;7.28;1.67;;;;;;;8.78;100.00;100615.06;5177749;27;20043;-76
2023/12/24 01:57:06;;;;;;;6.28;1.48;;;;;;;8.78;100.00;100607.09;5177167;27;20658;-76
2023/12/24 01:59:34;;;;;;;5.15;1.88;;;;;;;8.76;100.00;100603.38;5159164;27;20114;-76
2023/12/24 02:02:02;;;;;;;6.22;1.98;;;;;;;8.75;100.00;100601.91;5158952;27;20050;-76
2023/12/24 02:04:29;;;;;;;5.97;2.10;;;;;;;8.74;100.00;100609.13;5158947;27;20049;-76
2023/12/24 02:06:55;;;;;;;7.03;1.70;;;;;;;8.76;100.00;100600.72;5159502;27;20046;-76
2023/12/24 02:09:22;;;;;;;8.07;1.67;;;;;;;8.75;100.00;100604.56;5158488;27;20137;-76
2023/12/24 02:11:48;;;;;;;8.98;1.85;;;;;;;8.74;100.00;100590.53;5178614;27;20125;-77
2023/12/24 02:14:16;;;;;;;6.88;1.73;;;;;;;8.74;100.00;100595.84;5158390;27;20135;-77
2023/12/24 02:16:46;;;;;;;7.15;2.45;;;;;;;8.74;100.00;100587.16;5177582;27;20078;-77
2023/12/24 02:19:18;;;;;;;7.53;2.03;;;;;;;8.75;100.00;100586.72;5137544;27;20055;-77
2023/12/24 02:21:45;;;;;;;12.30;2.28;;;;;;;8.75;100.00;100557.53;5155578;27;20054;-78
2023/12/24 02:24:14;;;;;;;7.10;2.20;;;;;;;8.76;100.00;100550.31;5159099;27;20049;-77
2023/12/24 02:26:53;;;;;;;10.88;2.20;;;;;;;8.77;100.00;100539.25;5173858;27;20665;-77
2023/12/24 02:29:31;;;;;;;7.28;2.45;;;;;;;8.78;100.00;100543.38;5173847;27;20066;-78
2023/12/24 02:32:05;;;;;;;6.00;1.90;;;;;;;8.79;100.00;100544.88;5158657;27;20072;-78
2023/12/24 02:34:35;;;;;;;7.15;2.05;;;;;;;8.81;100.00;100549.72;5177828;27;20042;-78
2023/12/24 02:37:02;;;;;;;9.55;1.70;;;;;;;8.83;100.00;100553.44;5178640;27;20038;-77
2023/12/24 02:39:29;;;;;;;7.63;2.25;;;;;;;8.84;100.00;100557.56;5177076;27;20074;-77
2023/12/24 02:41:56;;;;;;;5.75;1.50;;;;;;;8.85;100.00;100548.44;5157986;27;20047;-77
2023/12/24 02:44:22;;;;;;;6.00;1.50;;;;;;;8.85;100.00;100553.75;5177606;27;20035;-77
2023/12/24 02:46:49;;;;;;;5.75;1.77;;;;;;;8.87;100.00;100559.38;5158705;27;20481;-77
2023/12/24 02:49:16;;;;;;;7.22;1.77;;;;;;;8.87;100.00;100553.31;5177562;27;20269;-77
2023/12/24 02:51:42;;;;;;;5.93;1.83;;;;;;;8.88;100.00;100550.22;5173100;27;20409;-77
2023/12/24 02:54:09;;;;;;;8.60;1.80;;;;;;;8.89;100.00;100540.34;5177954;27;20043;-78
2023/12/24 02:56:36;;;;;;;4.07;1.27;;;;;;;8.89;100.00;100543.75;5177215;27;20520;-78
2023/12/24 02:59:03;;;;;;;6.03;1.55;;;;;;;8.90;100.00;100550.53;5177989;27;20049;-78
2023/12/24 03:01:30;;;;;;;8.13;1.25;;;;;;;8.91;100.00;100544.06;5157944;27;20409;-77
2023/12/24 03:03:58;;;;;;;3.30;1.20;;;;;;;8.92;100.00;100558.06;5155088;27;20502;-77
2023/12/24 03:06:25;;;;;;;3.00;1.23;;;;;;;8.91;100.00;100545.97;5157548;27;20449;-77
2023/12/24 03:08:52;;;;;;;3.75;1.17;;;;;;;8.91;100.00;100525.47;5177291;27;20209;-78
2023/12/24 03:11:18;;;;;;;4.82;1.30;;;;;;;8.91;100.00;100530.78;5176582;27;20534;-78
2023/12/24 03:13:45;;;;;;;1.70;0.70;;;;;;;8.92;100.00;100515.59;5175736;27;20047;-78
2023/12/24 03:16:11;;;;;;;3.42;0.90;;;;;;;8.91;100.00;100517.50;5158198;27;20047;-78
2023/12/24 03:18:38;;;;;;;3.05;1.42;;;;;;;8.92;100.00;100504.97;5157997;27;20485;-77
2023/12/24 03:21:04;;;;;;;1.10;0.70;;;;;;;8.94;100.00;100513.25;5176836;27;20547;-77
2023/12/24 03:23:31;;;;;;;2.55;0.95;;;;;;;8.94;100.00;100506.03;5138355;27;20061;-77
2023/12/24 03:25:58;;;;;;;3.33;0.90;;;;;;;8.96;100.00;100484.34;5177576;27;20814;-77
2023/12/24 03:28:25;;;;;;;2.05;0.70;;;;;;;8.96;100.00;100497.63;5176397;27;20043;-77
2023/12/24 03:30:51;;;;;;;1.70;0.60;;;;;;;8.97;100.00;100494.53;5157762;27;20053;-77
2023/12/24 03:33:18;;;;;;;2.90;0.63;;;;;;;8.98;100.00;100485.41;5174602;27;20081;-77
2023/12/24 03:35:45;;;;;;;1.63;0.57;;;;;;;8.99;100.00;100489.53;5176704;27;20078;-77
2023/12/24 03:38:12;;;;;;;0.52;0.40;;;;;;;9.00;100.00;100493.69;5176292;27;20056;-77
2023/12/24 03:40:39;;;;;;;0.73;0.40;;;;;;;9.02;100.00;100494.00;5176241;27;20455;-77
2023/12/24 03:43:06;;;;;;;0.20;0.20;;;;;;;9.02;100.00;100490.59;5177324;27;20039;-77
2023/12/24 03:45:32;;;;;;;0.28;0.28;;;;;;;9.03;100.00;100484.84;5175902;27;20433;-77
2023/12/24 03:48:04;;;;;;;1.02;0.57;;;;;;;9.03;100.00;100476.88;5177741;27;20501;-77
2023/12/24 03:50:30;;;;;;;0.47;0.32;;;;;;;9.07;100.00;100473.34;5175767;27;20133;-77
2023/12/24 03:52:57;;;;;;;2.20;0.25;;;;;;;9.09;100.00;100471.00;5140448;27;20100;-77
2023/12/24 03:55:26;;;;;;;1.48;0.50;;;;;;;9.09;100.00;100482.38;5157237;27;20347;-77
2023/12/24 03:57:53;;;;;;;0.95;0.20;;;;;;;9.10;100.00;100478.53;5177133;27;20495;-77
2023/12/24 04:00:20;;;;;;;0.40;0.20;;;;;;;9.12;100.00;100481.50;5157333;27;20047;-77
2023/12/24 04:02:47;;;;;;;0.63;0.45;;;;;;;9.13;100.00;100469.72;5157419;27;20051;-77
2023/12/24 04:05:14;;;;;;;0.55;0.40;;;;;;;9.14;100.00;100471.19;5175828;27;20121;-77
2023/12/24 04:07:41;;;;;;;0.30;0.30;;;;;;;9.16;100.00;100473.41;5156164;27;20564;-77
2023/12/24 04:10:08;;;;;;;0.43;0.30;;;;;;;9.17;100.00;100472.25;5157006;27;20043;-77
2023/12/24 04:12:35;;;;;;;1.10;0.20;;;;;;;9.18;100.00;100471.06;5156781;27;20054;-77
2023/12/24 04:15:02;;;;;;;0.30;0.30;;;;;;;9.20;100.00;100468.69;5175359;27;20051;-77
2023/12/24 04:17:29;;;;;;;0.40;0.35;;;;;;;9.19;100.00;100473.28;5176239;27;20039;-77
2023/12/24 04:19:56;;;;;;;2.45;0.45;;;;;;;9.22;100.00;100471.66;5156786;27;20047;-77
2023/12/24 04:22:22;;;;;;;1.33;0.30;;;;;;;9.23;100.00;100470.47;5175050;27;20154;-77
2023/12/24 04:24:49;;;;;;;0.80;0.47;;;;;;;9.24;100.00;100471.94;5157043;27;20149;-77
2023/12/24 04:27:16;;;;;;;1.17;0.52;;;;;;;9.24;100.00;100478.00;5156096;27;20122;-77
2023/12/24 04:29:42;;;;;;;0.40;0.40;;;;;;;9.25;100.00;100476.09;5174216;27;20043;-77
2023/12/24 04:32:10;;;;;;;0.70;0.40;;;;;;;9.26;100.00;100472.25;5176565;27;20049;-77
2023/12/24 04:34:37;;;;;;;3.20;0.57;;;;;;;9.26;100.00;100475.66;5157022;27;20148;-78
2023/12/24 04:37:04;;;;;;;0.68;0.40;;;;;;;9.27;100.00;100468.44;5156888;27;20047;-77
2023/12/24 04:39:31;;;;;;;0.98;0.52;;;;;;;9.27;100.00;100466.50;5157213;27;20569;-78
2023/12/24 04:41:57;;;;;;;0.52;0.50;;;;;;;9.28;100.00;100472.56;5157950;27;20074;-77
2023/12/24 04:44:24;;;;;;;1.00;0.45;;;;;;;9.29;100.00;100472.13;5160541;27;20046;-77
2023/12/24 04:46:51;;;;;;;0.70;0.40;;;;;;;9.31;100.00;100450.44;5162398;27;20047;-77
2023/12/24 04:49:18;;;;;;;2.28;0.52;;;;;;;9.32;100.00;100446.59;5182197;27;20113;-77
2023/12/24 04:51:45;;;;;;;2.85;0.40;;;;;;;9.32;100.00;100438.63;5158425;27;20103;-76
2023/12/24 04:54:12;;;;;;;2.25;0.60;;;;;;;9.34;100.00;100439.69;5155620;27;20045;-76
2023/12/24 04:56:39;;;;;;;5.05;0.75;;;;;;;9.35;100.00;100438.50;5156783;27;20046;-76
2023/12/24 04:59:06;;;;;;;0.32;0.32;;;;;;;9.34;100.00;100433.63;5155378;27;20043;-76
2023/12/24 05:01:33;;;;;;;2.60;0.50;;;;;;;9.36;100.00;100439.25;5155676;27;20054;-76
2023/12/24 05:03:59;;;;;;;3.10;0.63;;;;;;;9.38;100.00;100438.81;5171392;27;20126;-76
2023/12/24 05:06:29;;;;;;;0.95;0.55;;;;;;;9.38;100.00;100444.13;5155897;27;20490;-76
2023/12/24 05:08:56;;;;;;;0.70;0.52;;;;;;;9.39;100.00;100434.97;5175512;27;20894;-76
2023/12/24 05:11:22;;;;;;;1.63;0.80;;;;;;;9.40;100.00;100437.19;5155125;27;20042;-76
2023/12/24 05:13:49;;;;;;;0.65;0.50;;;;;;;9.41;100.00;100432.63;5173855;27;20042;-76
2023/12/24 05:16:15;;;;;;;0.70;0.70;;;;;;;9.42;100.00;100429.53;5175756;27;20043;-76
2023/12/24 05:18:44;;;;;;;0.60;0.60;;;;;;;9.43;100.00;100436.31;5155767;27;20053;-76
2023/12/24 05:21:10;;;;;;;0.77;0.50;;;;;;;9.44;100.00;100429.09;5141751;27;20573;-76
2023/12/24 05:23:37;;;;;;;2.20;0.70;;;;;;;9.45;100.00;100422.59;5178756;27;20043;-77
2023/12/24 05:26:04;;;;;;;2.03;0.70;;;;;;;9.45;100.00;100422.59;5179115;27;20070;-77
2023/12/24 05:28:30;;;;;;;2.05;0.70;;;;;;;9.46;100.00;100427.47;5177708;27;20046;-77
2023/12/24 05:30:57;;;;;;;1.95;0.63;;;;;;;9.47;100.00;100423.63;5178304;27;20512;-77
2023/12/24 05:33:23;;;;;;;1.92;0.57;;;;;;;9.48;100.00;100422.47;5178715;27;20042;-77
2023/12/24 05:35:55;;;;;;;1.05;0.70;;;;;;;9.49;100.00;100423.94;5178498;27;20042;-77
2023/12/24 05:38:21;;;;;;;2.70;0.98;;;;;;;9.51;100.00;100418.19;5178079;27;20117;-77
2023/12/24 05:40:48;;;;;;;4.18;1.27;;;;;;;9.52;100.00;100423.06;5178402;27;20047;-77
2023/12/24 05:43:15;;;;;;;2.55;1.08;;;;;;;9.54;100.00;100422.63;5178593;27;20046;-77
2023/12/24 05:45:41;;;;;;;1.67;1.05;;;;;;;9.54;100.00;100410.09;5178391;27;20054;-77
2023/12/24 05:48:08;;;;;;;0.95;0.85;;;;;;;9.56;100.00;100421.03;5178596;27;20042;-77
2023/12/24 05:50:34;;;;;;;2.63;0.90;;;;;;;9.57;100.00;100419.84;5173934;27;20074;-77
2023/12/24 05:53:01;;;;;;;3.70;1.08;;;;;;;9.60;100.00;100412.88;5179009;27;20107;-77
2023/12/24 05:55:28;;;;;;;3.28;0.90;;;;;;;9.60;100.00;100418.94;5177850;27;20092;-77
2023/12/24 05:57:54;;;;;;;5.75;1.20;;;;;;;9.62;100.00;100400.63;5159343;27;20047;-77
2023/12/24 06:00:21;;;;;;;1.45;0.93;;;;;;;9.63;100.00;100396.06;5178177;27;20067;-77
2023/12/24 06:02:49;;;;;;;2.13;1.08;;;;;;;9.64;100.00;100384.97;5178446;27;20054;-77
2023/12/24 06:05:17;;;;;;;0.95;0.90;;;;;;;9.64;100.00;100390.31;5178233;27;20038;-78
2023/12/24 06:07:44;;;;;;;6.70;1.00;;;;;;;9.64;100.00;100392.97;5177749;27;20545;-77
2023/12/24 06:10:10;;;;;;;4.22;1.30;;;;;;;9.66;100.00;100395.91;5178496;27;20768;-78
2023/12/24 06:12:37;;;;;;;2.78;1.02;;;;;;;9.67;100.00;100391.34;5176658;27;20125;-78
2023/12/24 06:15:05;;;;;;;2.28;1.15;;;;;;;9.67;100.00;100392.06;5155037;27;20148;-78
2023/12/24 06:17:31;;;;;;;3.30;0.88;;;;;;;9.68;100.00;100403.44;5155581;27;20047;-78
2023/12/24 06:19:58;;;;;;;9.10;1.50;;;;;;;9.70;100.00;100396.50;5155709;27;20407;-77
2023/12/24 06:22:25;;;;;;;2.97;1.30;;;;;;;9.70;100.00;100385.88;5155664;27;20106;-77
2023/12/24 06:24:51;;;;;;;5.78;1.50;;;;;;;9.72;100.00;100392.69;5156161;27;20047;-78
2023/12/24 06:27:18;;;;;;;3.28;1.10;;;;;;;9.72;100.00;100404.06;5155477;27;20529;-78
2023/12/24 06:29:45;;;;;;;3.03;0.80;;;;;;;9.73;100.00;100405.53;5155811;27;20579;-78
2023/12/24 06:32:11;;;;;;;2.15;1.00;;;;;;;9.75;100.00;100407.75;5156131;27;20043;-78
2023/12/24 06:34:39;;;;;;;2.92;0.82;;;;;;;9.75;100.00;100399.78;5154815;27;20092;-78
2023/12/24 06:37:07;;;;;;;7.10;1.27;;;;;;;9.76;100.00;100390.63;5156946;27;20132;-78
2023/12/24 06:39:33;;;;;;;2.78;1.00;;;;;;;9.76;100.00;100394.00;5155267;27;20039;-78
2023/12/24 06:42:00;;;;;;;4.13;1.30;;;;;;;9.77;100.00;100387.53;5155303;27;20039;-78
2023/12/24 06:44:27;;;;;;;3.80;1.10;;;;;;;9.79;100.00;100400.38;5155589;27;20049;-77
2023/12/24 06:46:53;;;;;;;3.65;1.05;;;;;;;9.79;100.00;100406.44;5155636;27;20070;-78
2023/12/24 06:49:20;;;;;;;4.18;1.30;;;;;;;9.81;100.00;100400.66;5154650;27;20043;-77
2023/12/24 06:51:47;;;;;;;3.15;1.35;;;;;;;9.82;100.00;100404.81;5155601;27;20050;-77
2023/12/24 06:54:13;;;;;;;4.80;1.70;;;;;;;9.84;100.00;100394.47;5154967;27;20050;-77
2023/12/24 06:56:40;;;;;;;5.38;1.80;;;;;;;9.84;100.00;100389.16;5154969;27;20047;-77
2023/12/24 06:59:07;;;;;;;5.43;2.03;;;;;;;9.84;100.00;100389.91;5155488;27;20506;-77
2023/12/24 07:01:33;;;;;;;4.20;1.65;;;;;;;9.85;100.00;100383.41;5155087;27;20053;-77
2023/12/24 07:04:00;;;;;;;8.63;1.92;;;;;;;9.85;100.00;100390.63;5155401;27;20040;-78
2023/12/24 07:06:26;;;;;;;8.07;1.90;;;;;;;9.86;100.00;100389.44;5154401;27;20555;-78
2023/12/24 07:08:53;;;;;;;6.68;1.80;;;;;;;9.87;100.00;100393.59;5152534;27;20047;-78
2023/12/24 07:11:19;;;;;;;4.55;2.00;;;;;;;9.87;100.00;100399.66;5154931;27;20073;-78
2023/12/24 07:13:46;;;;;;;8.48;2.25;;;;;;;9.88;100.00;100400.38;5117438;27;1051098;-77
2023/12/24 07:16:13;;;;;;;8.23;2.20;;;;;;;9.89;100.00;100393.88;5176819;27;20050;-78
2023/12/24 07:18:40;;;;;;;10.63;2.40;;;;;;;9.90;100.00;100382.81;5156431;27;20050;-78
2023/12/24 07:21:06;;;;;;;10.45;2.35;;;;;;;9.91;100.00;100383.53;5178548;27;20046;-79
2023/12/24 07:23:33;;;;;;;9.57;3.10;;;;;;;9.91;100.00;100381.63;5177882;27;20043;-79
2023/12/24 07:25:59;;;;;;;10.75;2.83;;;;;;;9.91;100.00;100386.22;5177686;27;20034;-77
2023/12/24 07:28:26;;;;;;;9.20;2.53;;;;;;;9.92;100.00;100401.72;5177020;27;20133;-78
2023/12/24 07:30:53;;;;;;;9.30;2.50;;;;;;;9.92;100.00;100382.38;5177980;27;20126;-78
2023/12/24 07:33:19;;;;;;;6.97;2.22;;;;;;;9.93;100.00;100389.91;5158140;27;20047;-78
2023/12/24 07:35:46;;;;;;;10.02;2.38;;;;;;;9.93;100.00;100397.88;5177357;27;20122;-78
2023/12/24 07:38:13;;;;;;;10.75;2.50;;;;;;;9.95;100.00;100386.81;5177481;27;20050;-78
2023/12/24 07:40:40;;;;;;;9.38;2.35;;;;;;;9.96;100.00;100369.66;5158110;27;20819;-78
2023/12/24 07:43:06;;;;;;;8.90;2.40;;;;;;;9.96;100.00;100375.72;5176390;27;20594;-78
2023/12/24 07:45:33;;;;;;;7.43;2.60;;;;;;;9.97;100.00;100373.81;5176598;27;20043;-78
2023/12/24 07:47:59;;;;;;;9.60;2.60;;;;;;;9.96;100.00;100370.41;5158992;27;20043;-77
2023/12/24 07:50:26;;;;;;;14.80;3.13;;;;;;;9.98;100.00;100380.59;5176175;27;20049;-78
2023/12/24 07:52:53;;;;;;;8.90;2.80;;;;;;;9.98;100.00;100383.25;5176887;27;20043;-77
2023/12/24 07:55:20;;;;;;;12.88;3.08;;;;;;;9.98;100.00;100378.69;5174864;27;20047;-77
2023/12/24 07:57:46;;;;;;;9.63;3.00;;;;;;;9.99;100.00;100392.72;5177528;27;20039;-78
2023/12/24 08:00:13;;;;;;;17.05;3.25;;;;;;;9.99;100.00;100388.13;5175716;27;20122;-77
2023/12/24 08:02:42;;;;;;;13.88;3.35;;;;;;;10.00;100.00;100386.94;5177180;27;20043;-78
2023/12/24 08:05:09;;;;;;;10.60;3.20;;;;;;;10.01;100.00;100385.00;5176048;27;20119;-78
2023/12/24 08:07:36;;;;;;;12.65;3.88;;;;;;;10.03;100.00;100369.34;5176767;27;20538;-78
2023/12/24 08:10:03;;;;;;;16.90;3.80;;;;;;;10.04;100.00;100368.16;5177329;27;20043;-79
2023/12/24 08:12:30;;;;;;;13.65;3.20;;;;;;;10.02;100.00;100365.22;5175916;27;20636;-78
2023/12/24 08:14:56;;;;;;;11.80;3.40;;;;;;;10.04;100.00;100378.81;5175566;27;20047;-78
2023/12/24 08:17:23;;;;;;;14.32;3.15;;;;;;;10.04;100.00;100368.91;5176186;27;20049;-77
2023/12/24 08:19:50;;;;;;;13.55;3.70;;;;;;;10.06;100.00;100376.44;5176294;27;20528;-77
2023/12/24 08:22:16;;;;;;;9.07;2.95;;;;;;;10.07;100.00;100375.25;5176231;27;20039;-77
2023/12/24 08:24:43;;;;;;;10.55;2.70;;;;;;;10.07;100.00;100379.84;5175637;27;20497;-78
2023/12/24 08:27:09;;;;;;;12.65;3.03;;;;;;;10.08;100.00;100374.06;5157704;27;20515;-78
2023/12/24 08:29:36;;;;;;;7.75;2.10;;;;;;;10.08;100.00;100376.72;5157893;27;20049;-78
2023/12/24 08:32:03;;;;;;;8.80;2.40;;;;;;;10.09;100.00;100380.13;5176619;27;20057;-78
2023/12/24 08:34:29;;;;;;;4.13;2.17;;;;;;;10.08;100.00;100376.72;5176432;27;20557;-78
2023/12/24 08:36:56;;;;;;;8.73;2.42;;;;;;;10.09;100.00;100378.22;5153622;27;20833;-78
2023/12/24 08:39:22;;;;;;;6.57;2.00;;;;;;;10.10;100.00;100384.28;5176899;27;20042;-79
2023/12/24 08:41:49;;;;;;;6.07;1.63;;;;;;;10.10;100.00;100387.66;5176816;27;20125;-81
2023/12/24 08:44:16;;;;;;;7.53;1.75;;;;;;;10.10;100.00;100379.69;5176198;27;20524;-82
2023/12/24 08:46:47;;;;;;;2.95;1.83;;;;;;;10.11;100.00;100388.41;5177408;27;20042;-77
2023/12/24 08:49:15;;;;;;;5.10;2.13;;;;;;;10.12;100.00;100382.66;5175436;27;20812;-77
2023/12/24 08:51:42;;;;;;;4.18;1.60;;;;;;;10.13;100.00;100381.47;5175578;27;20038;-78
2023/12/24 08:54:09;;;;;;;2.97;1.50;;;;;;;10.14;100.00;100371.56;5177176;27;20038;-80
2023/12/24 08:56:36;;;;;;;3.95;1.60;;;;;;;10.15;100.00;100368.47;5179059;27;20035;-80
2023/12/24 08:59:03;;;;;;;4.50;1.67;;;;;;;10.16;100.00;100366.53;5176325;27;20038;-80
2023/12/24 09:01:30;;;;;;;6.00;2.10;;;;;;;10.17;100.00;100368.03;5173792;27;20042;-80
2023/12/24 09:03:56;;;;;;;4.85;1.63;;;;;;;10.19;100.00;100368.31;5176619;27;20039;-80
2023/12/24 09:06:23;;;;;;;5.28;1.83;;;;;;;10.19;100.00;100369.06;5175738;27;20046;-80
2023/12/24 09:08:50;;;;;;;7.15;1.85;;;;;;;10.20;100.00;100364.50;5176095;27;20096;-80
2023/12/24 09:11:16;;;;;;;9.45;2.00;;;;;;;10.21;100.00;100372.03;5177285;27;20039;-79
2023/12/24 09:13:43;;;;;;;7.30;2.05;;;;;;;10.24;100.00;100381.06;5178246;27;20093;-79
2023/12/24 09:16:10;;;;;;;3.63;2.03;;;;;;;10.25;100.00;100380.59;5173907;27;20051;-79
2023/12/24 09:18:37;;;;;;;5.43;2.30;;;;;;;10.26;100.00;100371.44;5175886;27;20126;-79
2023/12/24 09:21:03;;;;;;;9.80;3.03;;;;;;;10.26;100.00;100363.47;5154479;27;20046;-79
2023/12/24 09:23:30;;;;;;;9.77;2.35;;;;;;;10.27;100.00;100354.28;5175470;27;21248;-79
2023/12/24 09:25:57;;;;;;;9.77;2.25;;;;;;;10.28;100.00;100353.13;5176156;27;20118;-79
2023/12/24 09:28:24;;;;;;;7.85;2.83;;;;;;;10.30;100.00;100348.09;5176201;27;20060;-77
2023/12/24 09:30:50;;;;;;;9.73;2.40;;;;;;;10.31;100.00;100341.59;5156854;27;20051;-78
2023/12/24 09:33:17;;;;;;;8.73;2.33;;;;;;;10.32;100.00;100342.31;5176362;27;20121;-79
2023/12/24 09:35:44;;;;;;;4.63;2.05;;;;;;;10.33;100.00;100341.88;5181246;27;20043;-78
2023/12/24 09:38:14;;;;;;;6.27;2.33;;;;;;;10.35;100.00;100341.44;5182046;27;20069;-80
2023/12/24 09:40:41;;;;;;;8.77;2.53;;;;;;;10.36;100.00;100342.91;5161382;27;20054;-78
2023/12/24 09:43:08;;;;;;;9.35;2.78;;;;;;;10.39;100.00;100338.63;5173690;27;20549;-78
2023/12/24 09:45:34;;;;;;;11.63;3.22;;;;;;;10.38;100.00;100323.84;5173901;27;20867;-77
2023/12/24 09:48:02;;;;;;;7.25;2.35;;;;;;;10.39;100.00;100325.31;5176677;27;20039;-78
2023/12/24 09:50:29;;;;;;;8.57;2.53;;;;;;;10.40;100.00;100335.47;5175479;27;20121;-78
2023/12/24 09:52:57;;;;;;;6.45;2.60;;;;;;;10.41;100.00;100336.97;5156155;27;20047;-78
2023/12/24 09:55:23;;;;;;;11.02;3.50;;;;;;;10.42;100.00;100335.03;5175545;27;20045;-78
2023/12/24 09:57:50;;;;;;;14.38;3.90;;;;;;;10.44;100.00;100356.63;5175245;27;20121;-77
2023/12/24 10:00:16;;;;;;;20.08;3.58;;;;;;;10.44;100.00;100352.03;5174534;27;20053;-77
2023/12/24 10:02:44;;;;;;;14.32;3.65;;;;;;;10.47;100.00;100358.38;5174268;27;20043;-76
2023/12/24 10:05:13;;;;;;;19.33;4.40;;;;;;;10.47;100.00;100375.09;5174688;27;20458;-79
2023/12/24 10:07:40;;;;;;;18.65;4.20;;;;;;;10.49;100.00;100383.38;5176026;27;20047;-79
2023/12/24 10:10:09;;;;;;;19.83;4.45;;;;;;;10.50;100.00;100362.81;5180478;27;20145;-79
2023/12/24 10:12:35;;;;;;;20.20;4.15;;;;;;;10.52;100.00;100376.41;5179205;27;20039;-78
2023/12/24 10:15:02;;;;;;;17.23;4.47;;;;;;;10.52;100.00;100376.41;5180339;27;20082;-79
2023/12/24 10:17:33;;;;;;;17.27;4.78;;;;;;;10.54;100.00;100369.47;5177807;27;20045;-77
2023/12/24 10:20:04;;;;;;;26.67;4.93;;;;;;;10.55;100.00;100365.63;5177901;27;20516;-78
2023/12/24 10:22:30;;;;;;;28.13;4.78;;;;;;;10.57;100.00;100365.16;5177480;27;20103;-76
2023/12/24 10:25:07;;;;;;;28.38;5.50;;;;;;;10.58;100.00;100358.66;5160021;27;20070;-78
2023/12/24 10:27:34;;;;;;;25.50;4.85;;;;;;;10.59;100.00;100363.53;5160006;27;20039;-79
2023/12/24 10:30:12;;;;;;;26.45;5.18;;;;;;;10.61;100.00;100355.84;5180386;27;20046;-79
2023/12/24 10:32:42;;;;;;;26.42;4.80;;;;;;;10.60;100.00;100357.03;5159591;27;20054;-78
2023/12/24 10:35:09;;;;;;;25.20;5.93;;;;;;;10.63;100.00;100358.06;5179124;27;20100;-79
2023/12/24 10:37:37;;;;;;;23.45;3.92;;;;;;;10.64;100.00;100346.97;5159460;27;20043;-79
2023/12/24 10:40:11;;;;;;;21.75;5.00;;;;;;;10.65;100.00;100345.03;5178942;27;20401;-79
2023/12/24 10:42:39;;;;;;;24.48;4.60;;;;;;;10.66;100.00;100349.91;5177956;27;20539;-79
2023/12/24 10:45:07;;;;;;;12.32;3.72;;;;;;;10.69;100.00;100350.94;5178589;27;20038;-79
2023/12/24 10:47:35;;;;;;;24.38;4.45;;;;;;;10.69;100.00;100343.69;5177661;27;20929;-79
2023/12/24 10:50:05;;;;;;;24.63;4.85;;;;;;;10.69;100.00;100329.66;5179059;27;20049;-79
2023/12/24 10:52:32;;;;;;;19.05;3.88;;;;;;;10.71;100.00;100334.53;5177188;27;20042;-77
2023/12/24 10:55:00;;;;;;;17.88;4.07;;;;;;;10.72;100.00;100336.72;5177779;27;20505;-76
2023/12/24 10:57:34;;;;;;;14.85;4.20;;;;;;;10.72;100.00;100336.72;5156521;27;20058;-77
2023/12/24 11:00:15;;;;;;;20.83;3.90;;;;;;;10.73;100.00;100332.16;5177816;27;20125;-78
2023/12/24 11:02:49;;;;;;;20.02;3.67;;;;;;;10.73;100.00;100332.88;5176830;27;20042;-77
2023/12/24 11:05:43;;;;;;;16.33;3.55;;;;;;;10.74;100.00;100312.31;5177471;27;20084;-78
2023/12/24 11:08:18;;;;;;;19.15;3.88;;;;;;;10.74;100.00;100296.34;5175356;27;20046;-78
2023/12/24 11:11:07;;;;;;;17.83;3.25;;;;;;;10.74;100.00;100296.34;5176247;27;20050;-77
2023/12/24 11:13:36;;;;;;;15.82;2.85;;;;;;;10.75;100.00;100282.59;5157370;27;20049;-76
2023/12/24 11:16:05;;;;;;;7.82;2.58;;;;;;;10.77;100.00;100271.50;5176291;27;20051;-74
2023/12/24 11:18:46;;;;;;;11.55;2.80;;;;;;;10.78;100.00;100270.31;5175664;27;20077;-76
2023/12/24 11:21:15;;;;;;;10.25;2.72;;;;;;;10.79;100.00;100263.78;5176670;27;20046;-79
2023/12/24 11:24:08;;;;;;;6.45;1.80;;;;;;;10.80;100.00;100267.91;5176487;27;20039;-74